createdAt,value
2018-05-15T00:01:19.318Z,47.23
2018-05-15T00:03:46.239Z,56.07
2018-05-15T00:06:12.548Z,49.77
2018-05-15T00:08:39.540Z,52.77
2018-05-15T00:11:05.784Z,41.17
2018-05-15T00:13:32.112Z,58.60
2018-05-15T00:15:59.095Z,61.97
2018-05-15T00:18:25.343Z,65.10
2018-05-15T00:20:51.614Z,55.17
2018-05-15T00:23:18.582Z,59.57
2018-05-15T00:25:44.899Z,67.57
2018-05-15T00:28:11.899Z,76.90
2018-05-15T00:30:38.915Z,66.50
2018-05-15T00:33:05.187Z,60.50
2018-05-15T00:35:31.457Z,62.27
2018-05-15T00:37:58.443Z,55.23
2018-05-15T00:40:24.738Z,102.57
2018-05-15T00:42:50.983Z,55.40
2018-05-15T00:45:17.223Z,63.23
2018-05-15T00:47:44.198Z,66.83
2018-05-15T00:50:10.818Z,59.20
2018-05-15T00:52:37.838Z,59.23
2018-05-15T00:55:16.413Z,59.70
2018-05-15T00:57:42.649Z,58.67
2018-05-15T01:00:09.258Z,68.53
2018-05-15T01:02:35.936Z,77.23
2018-05-15T01:05:02.908Z,74.97
2018-05-15T01:07:29.213Z,68.00
2018-05-15T01:09:56.152Z,65.13
2018-05-15T01:12:23.153Z,65.67
2018-05-15T01:14:49.408Z,65.03
2018-05-15T01:17:15.656Z,80.10
2018-05-15T01:19:41.918Z,66.40
2018-05-15T01:22:08.529Z,44.57
2018-05-15T01:24:34.798Z,68.23
2018-05-15T01:27:01.395Z,51.97
2018-05-15T01:29:27.743Z,55.40
2018-05-15T01:31:53.994Z,71.77
2018-05-15T01:34:20.304Z,33.97
2018-05-15T01:36:47.289Z,42.23
2018-05-15T01:39:13.563Z,46.23
2018-05-15T01:41:40.546Z,55.40
2018-05-15T01:44:07.203Z,56.00
2018-05-15T01:46:33.434Z,49.40
2018-05-15T01:48:59.689Z,65.27
2018-05-15T01:51:25.933Z,57.10
2018-05-15T01:53:52.160Z,45.10
2018-05-15T01:56:19.922Z,46.13
2018-05-15T01:58:46.139Z,64.97
2018-05-15T02:01:12.423Z,51.83
2018-05-15T02:03:39.384Z,57.43
2018-05-15T02:06:05.709Z,56.33
2018-05-15T02:08:32.664Z,55.80
2018-05-15T02:10:59.649Z,50.53
2018-05-15T02:13:25.864Z,58.47
2018-05-15T02:15:52.158Z,73.03
2018-05-15T02:18:18.765Z,76.03
2018-05-15T02:20:46.144Z,63.63
2018-05-15T02:23:12.362Z,66.27
2018-05-15T02:25:38.633Z,70.77
2018-05-15T02:28:05.300Z,64.03
2018-05-15T02:30:31.606Z,68.13
2018-05-15T02:32:58.583Z,64.70
2018-05-15T02:35:24.804Z,65.17
2018-05-15T02:37:51.403Z,67.83
2018-05-15T02:40:17.654Z,61.10
2018-05-15T02:42:43.934Z,57.97
2018-05-15T02:45:10.900Z,51.30
2018-05-15T02:47:37.885Z,50.83
2018-05-15T02:50:04.138Z,51.63
2018-05-15T02:52:30.349Z,57.40
2018-05-15T02:54:57.360Z,49.00
2018-05-15T02:57:23.700Z,56.50
2018-05-15T02:59:49.995Z,49.27
2018-05-15T03:02:16.225Z,51.00
2018-05-15T03:04:42.456Z,55.43
2018-05-15T03:07:08.681Z,54.37
2018-05-15T03:09:34.948Z,55.10
2018-05-15T03:12:01.218Z,56.30
2018-05-15T03:14:27.901Z,56.53
2018-05-15T03:16:54.550Z,58.00
2018-05-15T03:19:20.762Z,56.10
2018-05-15T03:21:47.793Z,63.40
2018-05-15T03:24:14.061Z,70.37
2018-05-15T03:26:40.710Z,63.50
2018-05-15T03:29:07.358Z,61.47
2018-05-15T03:31:33.989Z,68.37
2018-05-15T03:34:00.233Z,57.27
2018-05-15T03:36:26.509Z,55.60
2018-05-15T03:38:53.559Z,57.93
2018-05-15T03:41:19.803Z,68.83
2018-05-15T03:43:46.124Z,66.33
2018-05-15T03:46:12.355Z,61.73
2018-05-15T03:48:38.585Z,64.20
2018-05-15T03:51:04.843Z,74.80
2018-05-15T03:53:31.099Z,49.93
2018-05-15T03:55:57.722Z,60.87
2018-05-15T03:58:23.940Z,71.13
2018-05-15T04:01:02.525Z,55.73
2018-05-15T04:03:41.084Z,68.70
2018-05-15T04:06:19.660Z,61.00
2018-05-15T04:08:46.012Z,58.87
2018-05-15T04:11:12.315Z,56.70
2018-05-15T04:13:38.564Z,71.83
2018-05-15T04:16:05.530Z,67.37
2018-05-15T04:18:31.840Z,63.07
2018-05-15T04:20:58.859Z,68.90
2018-05-15T04:23:25.494Z,57.80
2018-05-15T04:25:52.499Z,64.17
2018-05-15T04:28:19.550Z,54.63
2018-05-15T04:30:46.499Z,54.40
2018-05-15T04:33:13.135Z,54.97
2018-05-15T04:35:40.174Z,55.03
2018-05-15T04:38:06.443Z,58.60
2018-05-15T04:40:33.424Z,62.13
2018-05-15T04:43:00.453Z,62.83
2018-05-15T04:45:26.721Z,53.53
2018-05-15T04:47:52.993Z,55.80
2018-05-15T04:50:19.259Z,60.23
2018-05-15T04:52:46.258Z,60.97
2018-05-15T04:55:12.521Z,58.53
2018-05-15T04:57:38.834Z,54.37
2018-05-15T05:00:05.430Z,52.47
2018-05-15T05:02:31.681Z,60.03
2018-05-15T05:04:58.655Z,54.70
2018-05-15T05:07:24.905Z,55.87
2018-05-15T05:09:51.490Z,52.07
2018-05-15T05:12:18.522Z,57.70
2018-05-15T05:14:44.796Z,57.47
2018-05-15T05:17:11.095Z,46.67
2018-05-15T05:19:38.080Z,49.50
2018-05-15T05:22:04.344Z,47.17
2018-05-15T05:24:30.612Z,46.13
2018-05-15T05:26:58.321Z,48.30
2018-05-15T05:29:24.616Z,46.67
2018-05-15T05:31:50.871Z,51.70
2018-05-15T05:34:17.880Z,49.47
2018-05-15T05:36:44.842Z,46.27
2018-05-15T05:39:11.130Z,43.37
2018-05-15T05:41:37.378Z,53.03
2018-05-15T05:44:04.831Z,46.53
2018-05-15T05:46:31.868Z,47.23
2018-05-15T05:48:58.115Z,46.80
2018-05-15T05:51:25.066Z,43.27
2018-05-15T05:53:52.095Z,49.10
2018-05-15T05:56:18.316Z,52.23
2018-05-15T05:58:44.976Z,55.17
2018-05-15T06:01:11.561Z,49.43
2018-05-15T06:03:37.856Z,42.07
2018-05-15T06:06:04.525Z,41.23
2018-05-15T06:08:30.765Z,34.77
2018-05-15T06:10:57.039Z,29.53
2018-05-15T06:13:24.029Z,31.47
2018-05-15T06:15:51.135Z,38.63
2018-05-15T06:18:18.484Z,29.13
2018-05-15T06:20:45.582Z,36.80
2018-05-15T06:23:12.502Z,34.53
2018-05-15T06:25:39.522Z,38.10
2018-05-15T06:28:05.736Z,41.80
2018-05-15T06:30:31.959Z,34.30
2018-05-15T06:32:58.554Z,31.27
2018-05-15T06:35:25.560Z,35.90
2018-05-15T06:37:53.320Z,36.67
2018-05-15T06:40:19.551Z,34.17
2018-05-15T06:42:45.808Z,32.20
2018-05-15T06:45:12.050Z,35.23
2018-05-15T06:47:39.087Z,39.30
2018-05-15T06:50:05.300Z,30.77
2018-05-15T06:52:31.581Z,24.33
2018-05-15T06:54:58.647Z,34.10
2018-05-15T06:57:24.971Z,27.33
2018-05-15T06:59:51.931Z,27.10
2018-05-15T07:02:18.256Z,29.50
2018-05-15T07:04:44.856Z,32.13
2018-05-15T07:07:11.171Z,22.90
2018-05-15T07:09:37.491Z,36.17
2018-05-15T07:12:04.112Z,39.87
2018-05-15T07:14:31.844Z,41.47
2018-05-15T07:16:58.100Z,34.53
2018-05-15T07:19:24.392Z,25.93
2018-05-15T07:21:51.341Z,36.00
2018-05-15T07:24:17.992Z,40.63
2018-05-15T07:26:44.192Z,30.17
2018-05-15T07:29:10.811Z,31.10
2018-05-15T07:31:37.071Z,31.00
2018-05-15T07:34:04.126Z,34.57
2018-05-15T07:36:31.086Z,37.40
2018-05-15T07:38:57.377Z,37.27
2018-05-15T07:41:23.651Z,36.63
2018-05-15T07:43:50.693Z,36.53
2018-05-15T07:46:17.321Z,37.67
2018-05-15T07:48:44.333Z,30.90
2018-05-15T07:51:10.981Z,31.13
2018-05-15T07:53:37.591Z,34.60
2018-05-15T07:56:04.589Z,31.30
2018-05-15T07:58:30.890Z,35.47
2018-05-15T08:00:57.922Z,37.43
2018-05-15T08:03:24.166Z,32.27
2018-05-15T08:05:50.448Z,33.93
2018-05-15T08:08:16.682Z,30.43
2018-05-15T08:10:42.951Z,27.30
2018-05-15T08:13:09.576Z,29.67
2018-05-15T08:15:36.202Z,28.57
2018-05-15T08:18:02.486Z,30.80
2018-05-15T08:20:28.756Z,29.90
2018-05-15T08:22:55.008Z,30.80
2018-05-15T08:25:21.262Z,25.77
2018-05-15T08:27:47.532Z,31.00
2018-05-15T08:30:14.515Z,23.47
2018-05-15T08:32:40.773Z,18.43
2018-05-15T08:35:07.028Z,23.13
2018-05-15T08:37:33.682Z,20.63
2018-05-15T08:40:00.333Z,18.83
2018-05-15T08:42:27.003Z,21.17
2018-05-15T08:44:54.055Z,21.53
2018-05-15T08:47:21.060Z,16.67
2018-05-15T08:49:47.772Z,13.80
2018-05-15T08:52:14.961Z,14.47
2018-05-15T08:54:41.264Z,15.60
2018-05-15T08:57:07.566Z,17.40
2018-05-15T08:59:33.843Z,15.57
2018-05-15T09:02:00.146Z,12.80
2018-05-15T09:04:27.915Z,16.83
2018-05-15T09:06:54.149Z,14.57
2018-05-15T09:09:20.476Z,15.40
2018-05-15T09:11:47.106Z,14.50
2018-05-15T09:14:13.441Z,14.30
2018-05-15T09:16:39.746Z,13.30
2018-05-15T09:19:06.487Z,16.47
2018-05-15T09:21:32.681Z,14.30
2018-05-15T09:23:58.942Z,14.57
2018-05-15T09:26:25.941Z,15.53
2018-05-15T09:28:52.230Z,21.37
2018-05-15T09:31:18.865Z,20.50
2018-05-15T09:33:45.851Z,18.20
2018-05-15T09:36:12.080Z,20.93
2018-05-15T09:38:39.685Z,18.90
2018-05-15T09:41:05.912Z,22.33
2018-05-15T09:46:37.380Z,19.57
2018-05-15T09:49:03.713Z,22.53
2018-05-15T09:51:29.977Z,19.97
2018-05-15T09:53:56.265Z,17.63
2018-05-15T09:56:22.561Z,18.70
2018-05-15T09:58:48.832Z,15.90
2018-05-15T10:01:15.070Z,16.40
2018-05-15T10:03:42.072Z,18.53
2018-05-15T10:06:08.367Z,14.60
2018-05-15T10:08:34.621Z,17.67
2018-05-15T10:11:00.944Z,13.63
2018-05-15T10:13:27.637Z,14.90
2018-05-15T10:15:53.904Z,16.10
2018-05-15T10:18:20.158Z,16.50
2018-05-15T10:20:46.462Z,14.50
2018-05-15T10:23:13.522Z,15.93
2018-05-15T10:25:40.577Z,15.53
2018-05-15T10:28:07.637Z,15.57
2018-05-15T10:30:33.928Z,16.40
2018-05-15T10:33:00.219Z,14.63
2018-05-15T10:35:26.436Z,14.97
2018-05-15T10:37:53.433Z,16.43
2018-05-15T10:40:19.682Z,18.53
2018-05-15T10:42:45.984Z,15.47
2018-05-15T10:45:12.219Z,15.73
2018-05-15T10:47:38.574Z,13.50
2018-05-15T10:50:05.557Z,15.40
2018-05-15T10:52:31.819Z,16.13
2018-05-15T10:54:58.439Z,14.97
2018-05-15T10:57:25.413Z,15.20
2018-05-15T10:59:52.027Z,14.50
2018-05-15T11:02:18.261Z,12.83
2018-05-15T11:04:44.911Z,18.33
2018-05-15T11:07:11.137Z,15.43
2018-05-15T11:09:37.448Z,17.13
2018-05-15T11:12:03.691Z,17.00
2018-05-15T11:14:30.022Z,12.77
2018-05-15T11:16:56.292Z,15.67
2018-05-15T11:19:34.734Z,14.97
2018-05-15T11:22:13.928Z,13.13
2018-05-15T11:24:53.274Z,14.60
2018-05-15T11:27:19.542Z,16.30
2018-05-15T11:29:46.529Z,14.20
2018-05-15T11:32:12.772Z,14.57
2018-05-15T11:34:39.447Z,15.73
2018-05-15T11:37:05.753Z,12.23
2018-05-15T11:39:32.010Z,14.33
2018-05-15T11:41:58.324Z,11.87
2018-05-15T11:44:24.980Z,13.97
2018-05-15T11:46:51.228Z,13.97
2018-05-15T11:49:18.627Z,15.17
2018-05-15T11:51:44.654Z,11.10
2018-05-15T11:54:10.066Z,11.87
2018-05-15T11:56:37.112Z,12.67
2018-05-15T11:59:04.199Z,16.20
2018-05-15T12:01:30.512Z,21.63
2018-05-15T12:03:57.572Z,12.93
2018-05-15T12:06:33.646Z,11.53
2018-05-15T12:09:00.654Z,12.77
2018-05-15T12:11:26.879Z,13.80
2018-05-15T12:13:53.139Z,13.47
2018-05-15T12:16:20.839Z,13.17
2018-05-15T12:18:47.075Z,12.60
2018-05-15T12:21:13.383Z,13.53
2018-05-15T12:23:40.422Z,10.90
2018-05-15T12:26:06.710Z,9.47
2018-05-15T12:28:33.343Z,10.50
2018-05-15T12:30:59.639Z,13.47
2018-05-15T12:33:25.928Z,9.50
2018-05-15T12:35:52.253Z,11.70
2018-05-15T12:38:18.443Z,11.17
2018-05-15T12:40:44.694Z,10.63
2018-05-15T12:43:11.437Z,9.07
2018-05-15T12:45:37.707Z,11.07
2018-05-15T12:48:04.085Z,9.60
2018-05-15T12:50:30.289Z,11.23
2018-05-15T12:52:56.551Z,10.70
2018-05-15T12:55:22.821Z,11.60
2018-05-15T12:57:51.367Z,9.83
2018-05-15T13:00:17.624Z,10.93
2018-05-15T13:02:44.623Z,11.93
2018-05-15T13:05:11.618Z,13.00
2018-05-15T13:07:37.991Z,10.67
2018-05-15T13:10:04.240Z,12.30
2018-05-15T13:12:31.303Z,11.80
2018-05-15T13:14:58.237Z,10.37
2018-05-15T13:17:25.274Z,12.17
2018-05-15T13:19:51.570Z,10.13
2018-05-15T13:22:19.784Z,9.60
2018-05-15T13:24:46.033Z,7.93
2018-05-15T13:27:12.328Z,7.93
2018-05-15T13:29:38.565Z,7.73
2018-05-15T13:32:04.838Z,6.73
2018-05-15T13:34:31.050Z,8.73
2018-05-15T13:36:57.332Z,7.13
2018-05-15T13:39:24.412Z,6.73
2018-05-15T13:41:50.652Z,8.10
2018-05-15T13:44:16.897Z,11.47
2018-05-15T13:46:43.204Z,8.77
2018-05-15T13:49:10.294Z,9.20
2018-05-15T13:51:36.598Z,6.47
2018-05-15T13:54:02.888Z,8.47
2018-05-15T13:56:29.186Z,7.87
2018-05-15T13:58:56.204Z,7.63
2018-05-15T14:01:23.212Z,8.37
2018-05-15T14:03:49.590Z,7.17
2018-05-15T14:06:16.562Z,8.43
2018-05-15T14:08:43.504Z,7.10
2018-05-15T14:11:10.533Z,8.20
2018-05-15T14:13:36.836Z,7.70
2018-05-15T14:16:03.188Z,8.63
2018-05-15T14:18:29.384Z,9.63
2018-05-15T14:20:55.693Z,6.97
2018-05-15T14:23:22.690Z,6.23
2018-05-15T14:25:48.933Z,7.33
2018-05-15T14:28:16.232Z,8.20
2018-05-15T14:30:42.847Z,7.27
2018-05-15T14:33:09.108Z,10.87
2018-05-15T14:35:35.433Z,5.90
2018-05-15T14:38:01.718Z,7.77
2018-05-15T14:40:28.979Z,8.20
2018-05-15T14:43:07.396Z,6.87
2018-05-15T14:45:33.678Z,6.50
2018-05-15T14:47:59.938Z,7.77
2018-05-15T14:50:26.955Z,8.13
2018-05-15T14:52:53.618Z,8.93
2018-05-15T14:55:20.644Z,9.23
2018-05-15T14:57:46.884Z,6.50
2018-05-15T15:00:13.164Z,7.80
2018-05-15T15:02:39.850Z,6.93
2018-05-15T15:05:06.109Z,8.00
2018-05-15T15:07:32.417Z,7.57
2018-05-15T15:09:58.691Z,7.60
2018-05-15T15:12:25.415Z,9.87
2018-05-15T15:14:52.133Z,7.87
2018-05-15T15:17:18.472Z,7.10
2018-05-15T15:19:45.042Z,8.27
2018-05-15T15:22:11.330Z,7.30
2018-05-15T15:24:38.407Z,10.10
2018-05-15T15:27:04.685Z,14.13
2018-05-15T15:29:30.931Z,7.73
2018-05-15T15:31:57.221Z,10.23
2018-05-15T15:34:24.304Z,11.93
2018-05-15T15:36:50.544Z,10.50
2018-05-15T15:39:16.847Z,8.30
2018-05-15T15:41:43.158Z,8.53
2018-05-15T15:44:10.137Z,7.63
2018-05-15T15:46:36.402Z,7.47
2018-05-15T15:49:02.659Z,6.70
2018-05-15T15:51:28.919Z,6.57
2018-05-15T15:53:55.909Z,12.03
2018-05-15T15:56:22.133Z,6.80
2018-05-15T15:58:49.175Z,7.30
2018-05-15T16:01:16.145Z,7.43
2018-05-15T16:03:42.799Z,6.90
2018-05-15T16:06:09.088Z,7.50
2018-05-15T16:08:36.075Z,7.80
2018-05-15T16:11:03.094Z,14.63
2018-05-15T16:13:29.390Z,15.43
2018-05-15T16:15:55.650Z,9.93
2018-05-15T16:18:21.888Z,7.87
2018-05-15T16:20:48.199Z,9.10
2018-05-15T16:23:14.477Z,9.73
2018-05-15T16:25:41.492Z,9.27
2018-05-15T16:28:08.634Z,7.60
2018-05-15T16:30:34.940Z,11.27
2018-05-15T16:33:01.233Z,10.53
2018-05-15T16:35:27.498Z,9.40
2018-05-15T16:37:54.510Z,9.17
2018-05-15T16:40:20.765Z,8.93
2018-05-15T16:42:48.352Z,10.53
2018-05-15T16:45:15.353Z,9.03
2018-05-15T16:47:41.603Z,9.83
2018-05-15T16:50:07.903Z,8.97
2018-05-15T16:52:34.205Z,9.13
2018-05-15T16:55:00.430Z,12.17
2018-05-15T16:57:26.742Z,10.27
2018-05-15T16:59:53.407Z,12.27
2018-05-15T17:02:19.668Z,8.80
2018-05-15T17:04:46.617Z,10.70
2018-05-15T17:07:12.895Z,10.90
2018-05-15T17:09:39.130Z,10.50
2018-05-15T17:12:05.427Z,8.60
2018-05-15T17:14:32.444Z,8.93
2018-05-15T17:16:58.784Z,12.07
2018-05-15T17:19:25.046Z,11.60
2018-05-15T17:21:51.299Z,10.47
2018-05-15T17:24:18.352Z,10.40
2018-05-15T17:26:45.357Z,12.07
2018-05-15T17:29:11.618Z,12.90
2018-05-15T17:31:38.294Z,12.27
2018-05-15T17:34:04.569Z,14.43
2018-05-15T17:36:30.787Z,13.33
2018-05-15T17:38:57.826Z,11.80
2018-05-15T17:41:24.063Z,14.60
2018-05-15T17:43:50.725Z,11.43
2018-05-15T17:46:16.965Z,13.30
2018-05-15T17:48:43.263Z,10.57
2018-05-15T17:51:10.240Z,11.97
2018-05-15T17:53:36.508Z,11.77
2018-05-15T17:56:03.179Z,12.03
2018-05-15T17:58:29.413Z,11.97
2018-05-15T18:00:55.740Z,10.57
2018-05-15T18:03:22.003Z,12.03
2018-05-15T18:05:49.070Z,11.47
2018-05-15T18:08:15.364Z,12.20
2018-05-15T18:10:42.043Z,11.23
2018-05-15T18:13:09.063Z,13.30
2018-05-15T18:15:35.354Z,14.10
2018-05-15T18:18:02.309Z,10.67
2018-05-15T18:20:29.756Z,11.60
2018-05-15T18:22:56.000Z,12.33
2018-05-15T18:25:22.305Z,13.47
2018-05-15T18:27:49.464Z,14.20
2018-05-15T18:30:17.064Z,12.87
2018-05-15T18:32:43.359Z,12.77
2018-05-15T18:35:11.721Z,12.27
2018-05-15T18:37:39.274Z,12.90
2018-05-15T18:40:08.172Z,11.60
2018-05-15T18:42:34.959Z,12.70
2018-05-15T18:45:01.966Z,13.27
2018-05-15T18:47:29.054Z,11.93
2018-05-15T18:49:56.815Z,12.93
2018-05-15T18:52:23.899Z,12.80
2018-05-15T18:54:50.549Z,11.90
2018-05-15T18:57:18.169Z,13.67
2018-05-15T18:59:44.796Z,11.03
2018-05-15T19:02:13.001Z,8.97
2018-05-15T19:04:40.660Z,12.90
2018-05-15T19:07:07.750Z,11.60
2018-05-15T19:09:36.069Z,11.63
2018-05-15T19:12:03.316Z,10.50
2018-05-15T19:14:29.701Z,10.40
2018-05-15T19:16:56.270Z,12.53
2018-05-15T19:19:24.521Z,10.97
2018-05-15T19:21:52.389Z,9.33
2018-05-15T19:24:20.604Z,10.67
2018-05-15T19:26:47.658Z,12.57
2018-05-15T19:29:14.469Z,11.70
2018-05-15T19:31:41.269Z,13.00
2018-05-15T19:34:15.336Z,12.97
2018-05-15T19:36:49.411Z,18.60
2018-05-15T19:39:16.716Z,19.17
2018-05-15T19:41:42.896Z,71.67
2018-05-15T19:44:09.921Z,18.27
2018-05-15T19:46:37.472Z,17.27
2018-05-15T19:49:04.660Z,14.87
2018-05-15T19:51:32.263Z,14.10
2018-05-15T19:53:58.575Z,13.77
2018-05-15T19:56:25.555Z,14.50
2018-05-15T19:58:54.527Z,16.73
2018-05-15T20:01:23.369Z,15.23
2018-05-15T20:03:50.013Z,14.30
2018-05-15T20:06:17.174Z,15.70
2018-05-15T20:08:44.989Z,16.83
2018-05-15T20:11:13.268Z,18.23
2018-05-15T20:13:40.169Z,14.47
2018-05-15T20:16:06.728Z,15.53
2018-05-15T20:18:33.831Z,16.50
2018-05-15T20:21:01.212Z,18.33
2018-05-15T20:23:27.470Z,17.00
2018-05-15T20:25:57.185Z,16.47
2018-05-15T20:28:24.318Z,18.20
2018-05-15T20:30:51.766Z,15.97
2018-05-15T20:33:18.091Z,33.27
2018-05-15T20:35:44.467Z,41.37
2018-05-15T20:38:10.967Z,22.27
2018-05-15T20:40:37.997Z,18.87
2018-05-15T20:43:05.017Z,19.10
2018-05-15T20:45:34.227Z,19.63
2018-05-15T20:48:00.489Z,18.70
2018-05-15T20:50:26.799Z,17.50
2018-05-15T20:52:53.085Z,20.13
2018-05-15T20:55:20.109Z,14.40
2018-05-15T20:57:47.000Z,18.47
2018-05-15T21:00:13.991Z,15.17
2018-05-15T21:02:40.247Z,14.23
2018-05-15T21:05:07.091Z,15.97
2018-05-15T21:07:34.373Z,16.03
2018-05-15T21:10:01.374Z,14.30
2018-05-15T21:12:27.951Z,14.93
2018-05-15T21:14:54.204Z,14.20
2018-05-15T21:17:20.839Z,13.53
2018-05-15T21:19:47.080Z,14.00
2018-05-15T21:22:14.260Z,13.63
2018-05-15T21:24:41.265Z,12.33
2018-05-15T21:27:08.287Z,12.90
2018-05-15T21:29:34.585Z,14.97
2018-05-15T21:32:01.613Z,14.90
2018-05-15T21:34:27.895Z,11.17
2018-05-15T21:36:54.880Z,11.97
2018-05-15T21:39:21.145Z,13.63
2018-05-15T21:41:47.367Z,10.93
2018-05-15T21:44:13.655Z,11.40
2018-05-15T21:46:40.603Z,10.47
2018-05-15T21:49:07.227Z,13.83
2018-05-15T21:51:34.225Z,12.37
2018-05-15T21:54:01.227Z,11.80
2018-05-15T21:56:27.462Z,10.93
2018-05-15T21:58:53.716Z,12.17
2018-05-15T22:01:20.796Z,10.30
2018-05-15T22:03:47.135Z,12.47
2018-05-15T22:06:13.660Z,12.27
2018-05-15T22:08:40.655Z,11.83
2018-05-15T22:11:12.886Z,11.43
2018-05-15T22:13:51.181Z,9.97
2018-05-15T22:16:29.960Z,11.13
2018-05-15T22:19:08.345Z,14.77
2018-05-15T22:21:46.818Z,12.13
2018-05-15T22:24:19.252Z,11.33
2018-05-15T22:26:45.560Z,13.00
2018-05-15T22:29:12.596Z,11.87
2018-05-15T22:31:39.602Z,9.63
2018-05-15T22:34:05.871Z,12.67
2018-05-15T22:36:32.143Z,12.97
2018-05-15T22:38:59.125Z,13.03
2018-05-15T22:41:25.380Z,12.03
2018-05-15T22:43:52.385Z,11.50
2018-05-15T22:46:18.657Z,11.77
2018-05-15T22:48:44.913Z,12.77
2018-05-15T22:51:11.183Z,11.43
2018-05-15T22:53:37.420Z,10.87
2018-05-15T22:56:05.041Z,12.80
2018-05-15T22:58:31.767Z,13.50
2018-05-15T23:00:59.117Z,12.73
2018-05-15T23:03:25.396Z,11.37
2018-05-15T23:05:51.658Z,9.53
2018-05-15T23:08:18.666Z,12.87
2018-05-15T23:10:45.621Z,9.97
2018-05-15T23:13:11.876Z,11.37
2018-05-15T23:15:38.227Z,10.40
2018-05-15T23:18:04.426Z,10.33
2018-05-15T23:20:30.674Z,9.37
2018-05-15T23:22:57.326Z,9.97
2018-05-15T23:25:24.472Z,10.13
2018-05-15T23:27:50.761Z,12.63
2018-05-15T23:30:17.002Z,9.57
2018-05-15T23:32:43.353Z,9.90
2018-05-15T23:35:09.617Z,11.83
2018-05-15T23:37:36.561Z,11.00
2018-05-15T23:40:02.868Z,9.50
2018-05-15T23:42:29.107Z,10.27
2018-05-15T23:44:55.352Z,9.43
2018-05-15T23:47:21.592Z,10.83
2018-05-15T23:49:47.846Z,9.60
2018-05-15T23:52:14.093Z,10.07
2018-05-15T23:54:40.348Z,10.63
2018-05-15T23:57:07.367Z,9.73
2018-05-15T23:59:33.636Z,12.97
